sensor_id;sensor_type;location;lat;lon;timestamp;temperature;humidity
39951;DHT22;25629;51.444;-2.606;2024-03-29T00:00:03;7.00;95.40
39951;DHT22;25629;51.444;-2.606;2024-03-29T00:02:28;7.00;90.60
39951;DHT22;25629;51.444;-2.606;2024-03-29T00:04:54;7.00;90.50
39951;DHT22;25629;51.444;-2.606;2024-03-29T00:07:19;7.00;90.20
39951;DHT22;25629;51.444;-2.606;2024-03-29T00:09:45;6.90;88.30
39951;DHT22;25629;51.444;-2.606;2024-03-29T00:12:11;6.80;88.40
39951;DHT22;25629;51.444;-2.606;2024-03-29T00:14:36;6.70;90.90
39951;DHT22;25629;51.444;-2.606;2024-03-29T00:17:02;6.60;92.70
39951;DHT22;25629;51.444;-2.606;2024-03-29T00:19:29;6.60;98.10
39951;DHT22;25629;51.444;-2.606;2024-03-29T00:21:55;6.50;99.90
39951;DHT22;25629;51.444;-2.606;2024-03-29T00:24:20;6.50;99.90
39951;DHT22;25629;51.444;-2.606;2024-03-29T00:26:46;6.50;99.90
39951;DHT22;25629;51.444;-2.606;2024-03-29T00:29:12;6.50;99.90
39951;DHT22;25629;51.444;-2.606;2024-03-29T00:31:37;6.50;99.90
39951;DHT22;25629;51.444;-2.606;2024-03-29T00:34:03;6.50;99.90
39951;DHT22;25629;51.444;-2.606;2024-03-29T00:36:28;6.50;99.90
39951;DHT22;25629;51.444;-2.606;2024-03-29T00:38:54;6.60;99.90
39951;DHT22;25629;51.444;-2.606;2024-03-29T00:41:19;6.60;99.90
39951;DHT22;25629;51.444;-2.606;2024-03-29T00:43:45;6.70;99.90
39951;DHT22;25629;51.444;-2.606;2024-03-29T00:46:10;6.70;96.30
39951;DHT22;25629;51.444;-2.606;2024-03-29T00:48:36;6.70;92.10
39951;DHT22;25629;51.444;-2.606;2024-03-29T00:51:02;6.70;87.80
39951;DHT22;25629;51.444;-2.606;2024-03-29T00:53:28;6.80;80.80
39951;DHT22;25629;51.444;-2.606;2024-03-29T00:55:53;6.80;64.60
39951;DHT22;25629;51.444;-2.606;2024-03-29T00:58:19;6.80;59.50
39951;DHT22;25629;51.444;-2.606;2024-03-29T01:00:44;6.80;48.90
39951;DHT22;25629;51.444;-2.606;2024-03-29T01:03:11;6.80;37.40
39951;DHT22;25629;51.444;-2.606;2024-03-29T01:05:36;6.80;42.00
39951;DHT22;25629;51.444;-2.606;2024-03-29T01:08:04;6.80;37.40
39951;DHT22;25629;51.444;-2.606;2024-03-29T01:10:29;6.70;44.30
39951;DHT22;25629;51.444;-2.606;2024-03-29T01:12:55;6.70;53.40
39951;DHT22;25629;51.444;-2.606;2024-03-29T01:15:20;6.70;60.90
39951;DHT22;25629;51.444;-2.606;2024-03-29T01:17:46;6.70;73.00
39951;DHT22;25629;51.444;-2.606;2024-03-29T01:20:11;6.70;78.20
39951;DHT22;25629;51.444;-2.606;2024-03-29T01:22:38;6.80;78.40
39951;DHT22;25629;51.444;-2.606;2024-03-29T01:25:03;6.90;76.40
39951;DHT22;25629;51.444;-2.606;2024-03-29T01:27:33;6.90;71.00
39951;DHT22;25629;51.444;-2.606;2024-03-29T01:29:58;7.00;58.20
39951;DHT22;25629;51.444;-2.606;2024-03-29T01:32:24;7.10;48.50
39951;DHT22;25629;51.444;-2.606;2024-03-29T01:34:49;7.20;39.60
39951;DHT22;25629;51.444;-2.606;2024-03-29T01:37:15;7.20;8.60
39951;DHT22;25629;51.444;-2.606;2024-03-29T01:39:41;7.30;1.00
39951;DHT22;25629;51.444;-2.606;2024-03-29T01:42:07;7.40;1.00
39951;DHT22;25629;51.444;-2.606;2024-03-29T01:44:32;7.40;1.00
39951;DHT22;25629;51.444;-2.606;2024-03-29T01:46:58;7.40;1.00
39951;DHT22;25629;51.444;-2.606;2024-03-29T01:49:23;7.50;1.00
39951;DHT22;25629;51.444;-2.606;2024-03-29T01:51:49;7.50;1.00
39951;DHT22;25629;51.444;-2.606;2024-03-29T01:54:15;7.60;1.70
39951;DHT22;25629;51.444;-2.606;2024-03-29T01:56:40;7.60;11.80
39951;DHT22;25629;51.444;-2.606;2024-03-29T01:59:08;7.70;37.70
39951;DHT22;25629;51.444;-2.606;2024-03-29T02:01:36;7.70;57.10
39951;DHT22;25629;51.444;-2.606;2024-03-29T02:04:03;7.70;77.80
39951;DHT22;25629;51.444;-2.606;2024-03-29T02:06:29;7.80;93.80
39951;DHT22;25629;51.444;-2.606;2024-03-29T02:08:55;7.80;98.20
39951;DHT22;25629;51.444;-2.606;2024-03-29T02:11:21;7.80;99.90
39951;DHT22;25629;51.444;-2.606;2024-03-29T02:13:46;7.90;99.90
39951;DHT22;25629;51.444;-2.606;2024-03-29T02:16:13;7.90;99.90
39951;DHT22;25629;51.444;-2.606;2024-03-29T02:18:38;7.80;99.90
39951;DHT22;25629;51.444;-2.606;2024-03-29T02:21:04;7.80;99.90
39951;DHT22;25629;51.444;-2.606;2024-03-29T02:23:29;7.80;99.90
39951;DHT22;25629;51.444;-2.606;2024-03-29T02:25:57;7.80;99.90
39951;DHT22;25629;51.444;-2.606;2024-03-29T02:28:23;7.80;99.90
39951;DHT22;25629;51.444;-2.606;2024-03-29T02:30:51;7.80;99.90
39951;DHT22;25629;51.444;-2.606;2024-03-29T02:33:17;7.80;99.90
39951;DHT22;25629;51.444;-2.606;2024-03-29T02:35:43;7.80;99.90
39951;DHT22;25629;51.444;-2.606;2024-03-29T02:38:08;7.80;99.90
39951;DHT22;25629;51.444;-2.606;2024-03-29T02:40:34;7.80;99.90
39951;DHT22;25629;51.444;-2.606;2024-03-29T02:42:59;7.80;99.90
39951;DHT22;25629;51.444;-2.606;2024-03-29T02:45:25;7.80;99.90
39951;DHT22;25629;51.444;-2.606;2024-03-29T02:47:50;7.80;99.90
39951;DHT22;25629;51.444;-2.606;2024-03-29T02:50:16;7.80;99.90
39951;DHT22;25629;51.444;-2.606;2024-03-29T02:52:41;7.80;99.90
39951;DHT22;25629;51.444;-2.606;2024-03-29T02:55:08;7.80;99.90
39951;DHT22;25629;51.444;-2.606;2024-03-29T02:57:36;7.80;99.90
39951;DHT22;25629;51.444;-2.606;2024-03-29T03:00:01;7.80;99.90
39951;DHT22;25629;51.444;-2.606;2024-03-29T03:02:28;7.80;99.90
39951;DHT22;25629;51.444;-2.606;2024-03-29T03:04:53;7.90;99.90
39951;DHT22;25629;51.444;-2.606;2024-03-29T03:07:19;7.90;99.90
39951;DHT22;25629;51.444;-2.606;2024-03-29T03:10:03;7.90;99.90
39951;DHT22;25629;51.444;-2.606;2024-03-29T03:12:47;7.90;99.90
39951;DHT22;25629;51.444;-2.606;2024-03-29T03:15:12;7.90;99.90
39951;DHT22;25629;51.444;-2.606;2024-03-29T03:17:38;7.80;99.90
39951;DHT22;25629;51.444;-2.606;2024-03-29T03:20:03;7.80;99.90
39951;DHT22;25629;51.444;-2.606;2024-03-29T03:22:32;7.80;99.90
39951;DHT22;25629;51.444;-2.606;2024-03-29T03:24:57;7.80;99.90
39951;DHT22;25629;51.444;-2.606;2024-03-29T03:27:23;7.80;99.90
39951;DHT22;25629;51.444;-2.606;2024-03-29T03:29:49;7.80;99.90
39951;DHT22;25629;51.444;-2.606;2024-03-29T03:32:14;7.80;99.90
39951;DHT22;25629;51.444;-2.606;2024-03-29T03:34:40;7.80;99.90
39951;DHT22;25629;51.444;-2.606;2024-03-29T03:37:05;7.80;99.90
39951;DHT22;25629;51.444;-2.606;2024-03-29T03:39:31;7.80;99.90
39951;DHT22;25629;51.444;-2.606;2024-03-29T03:41:56;7.80;99.90
39951;DHT22;25629;51.444;-2.606;2024-03-29T03:44:22;7.90;99.90
39951;DHT22;25629;51.444;-2.606;2024-03-29T03:46:50;7.90;99.90
39951;DHT22;25629;51.444;-2.606;2024-03-29T03:49:15;7.90;99.90
39951;DHT22;25629;51.444;-2.606;2024-03-29T03:51:41;7.90;99.90
39951;DHT22;25629;51.444;-2.606;2024-03-29T03:54:08;7.90;99.90
39951;DHT22;25629;51.444;-2.606;2024-03-29T03:56:34;7.90;99.90
39951;DHT22;25629;51.444;-2.606;2024-03-29T03:58:59;8.00;99.90
39951;DHT22;25629;51.444;-2.606;2024-03-29T04:01:25;8.00;99.90
39951;DHT22;25629;51.444;-2.606;2024-03-29T04:03:50;8.10;99.90
39951;DHT22;25629;51.444;-2.606;2024-03-29T04:06:16;8.10;99.90
39951;DHT22;25629;51.444;-2.606;2024-03-29T04:08:43;8.20;95.90
39951;DHT22;25629;51.444;-2.606;2024-03-29T04:11:09;8.20;81.30
39951;DHT22;25629;51.444;-2.606;2024-03-29T04:13:34;8.20;74.50
39951;DHT22;25629;51.444;-2.606;2024-03-29T04:16:05;8.20;55.10
39951;DHT22;25629;51.444;-2.606;2024-03-29T04:18:31;8.30;48.40
39951;DHT22;25629;51.444;-2.606;2024-03-29T04:20:57;8.30;45.00
39951;DHT22;25629;51.444;-2.606;2024-03-29T04:23:22;8.30;40.20
39951;DHT22;25629;51.444;-2.606;2024-03-29T04:25:55;8.30;33.10
39951;DHT22;25629;51.444;-2.606;2024-03-29T04:28:20;8.40;32.30
39951;DHT22;25629;51.444;-2.606;2024-03-29T04:30:55;8.30;27.70
39951;DHT22;25629;51.444;-2.606;2024-03-29T04:33:21;8.30;24.00
39951;DHT22;25629;51.444;-2.606;2024-03-29T04:35:53;8.40;22.30
39951;DHT22;25629;51.444;-2.606;2024-03-29T04:38:19;8.40;10.80
39951;DHT22;25629;51.444;-2.606;2024-03-29T04:40:45;8.30;1.00
39951;DHT22;25629;51.444;-2.606;2024-03-29T04:43:10;8.40;1.00
39951;DHT22;25629;51.444;-2.606;2024-03-29T04:45:36;8.40;1.00
39951;DHT22;25629;51.444;-2.606;2024-03-29T04:48:01;8.50;1.00
39951;DHT22;25629;51.444;-2.606;2024-03-29T04:50:28;8.50;1.00
39951;DHT22;25629;51.444;-2.606;2024-03-29T04:52:53;8.40;1.00
39951;DHT22;25629;51.444;-2.606;2024-03-29T04:55:19;8.50;1.00
39951;DHT22;25629;51.444;-2.606;2024-03-29T04:57:44;8.50;1.00
39951;DHT22;25629;51.444;-2.606;2024-03-29T05:00:10;8.50;1.00
39951;DHT22;25629;51.444;-2.606;2024-03-29T05:02:36;8.50;1.00
39951;DHT22;25629;51.444;-2.606;2024-03-29T05:05:03;8.50;1.00
39951;DHT22;25629;51.444;-2.606;2024-03-29T05:07:28;8.50;4.80
39951;DHT22;25629;51.444;-2.606;2024-03-29T05:09:54;8.50;13.40
39951;DHT22;25629;51.444;-2.606;2024-03-29T05:12:21;8.40;15.90
39951;DHT22;25629;51.444;-2.606;2024-03-29T05:14:46;8.50;38.10
39951;DHT22;25629;51.444;-2.606;2024-03-29T05:17:14;8.40;67.50
39951;DHT22;25629;51.444;-2.606;2024-03-29T05:19:40;8.40;93.60
39951;DHT22;25629;51.444;-2.606;2024-03-29T05:22:05;8.50;99.90
39951;DHT22;25629;51.444;-2.606;2024-03-29T05:24:31;8.40;99.90
39951;DHT22;25629;51.444;-2.606;2024-03-29T05:26:57;8.40;99.90
39951;DHT22;25629;51.444;-2.606;2024-03-29T05:29:22;8.50;99.90
39951;DHT22;25629;51.444;-2.606;2024-03-29T05:31:48;8.40;99.90
39951;DHT22;25629;51.444;-2.606;2024-03-29T05:34:13;8.40;99.90
39951;DHT22;25629;51.444;-2.606;2024-03-29T05:36:40;8.40;99.90
39951;DHT22;25629;51.444;-2.606;2024-03-29T05:39:06;8.40;99.90
39951;DHT22;25629;51.444;-2.606;2024-03-29T05:41:31;8.30;99.90
39951;DHT22;25629;51.444;-2.606;2024-03-29T05:44:00;8.30;99.90
39951;DHT22;25629;51.444;-2.606;2024-03-29T05:46:25;8.30;99.90
39951;DHT22;25629;51.444;-2.606;2024-03-29T05:48:51;8.30;99.90
39951;DHT22;25629;51.444;-2.606;2024-03-29T05:51:16;8.40;99.90
39951;DHT22;25629;51.444;-2.606;2024-03-29T05:53:42;8.30;99.90
39951;DHT22;25629;51.444;-2.606;2024-03-29T05:56:07;8.30;99.90
39951;DHT22;25629;51.444;-2.606;2024-03-29T05:58:33;8.30;99.90
39951;DHT22;25629;51.444;-2.606;2024-03-29T06:00:59;8.40;99.90
39951;DHT22;25629;51.444;-2.606;2024-03-29T06:03:24;8.40;99.90
39951;DHT22;25629;51.444;-2.606;2024-03-29T06:05:50;8.50;99.90
39951;DHT22;25629;51.444;-2.606;2024-03-29T06:08:15;8.50;99.90
39951;DHT22;25629;51.444;-2.606;2024-03-29T06:10:41;8.50;99.90
39951;DHT22;25629;51.444;-2.606;2024-03-29T06:13:06;8.50;99.90
39951;DHT22;25629;51.444;-2.606;2024-03-29T06:15:34;8.50;99.90
39951;DHT22;25629;51.444;-2.606;2024-03-29T06:18:18;8.50;99.90
39951;DHT22;25629;51.444;-2.606;2024-03-29T06:20:44;8.60;99.90
39951;DHT22;25629;51.444;-2.606;2024-03-29T06:23:10;8.70;99.90
39951;DHT22;25629;51.444;-2.606;2024-03-29T06:25:35;8.70;99.90
39951;DHT22;25629;51.444;-2.606;2024-03-29T06:28:01;8.80;99.90
39951;DHT22;25629;51.444;-2.606;2024-03-29T06:30:26;8.80;99.90
39951;DHT22;25629;51.444;-2.606;2024-03-29T06:32:52;8.80;99.90
39951;DHT22;25629;51.444;-2.606;2024-03-29T06:35:18;8.70;99.90
39951;DHT22;25629;51.444;-2.606;2024-03-29T06:37:45;8.70;99.90
39951;DHT22;25629;51.444;-2.606;2024-03-29T06:40:11;8.70;99.90
39951;DHT22;25629;51.444;-2.606;2024-03-29T06:42:36;8.80;99.90
39951;DHT22;25629;51.444;-2.606;2024-03-29T06:45:02;8.80;99.90
39951;DHT22;25629;51.444;-2.606;2024-03-29T06:47:31;8.70;99.90
39951;DHT22;25629;51.444;-2.606;2024-03-29T06:49:56;8.70;99.90
39951;DHT22;25629;51.444;-2.606;2024-03-29T06:52:22;8.70;99.90
39951;DHT22;25629;51.444;-2.606;2024-03-29T06:54:47;8.60;99.90
39951;DHT22;25629;51.444;-2.606;2024-03-29T06:57:13;8.70;99.90
39951;DHT22;25629;51.444;-2.606;2024-03-29T06:59:42;8.70;99.90
39951;DHT22;25629;51.444;-2.606;2024-03-29T07:02:08;8.60;99.90
39951;DHT22;25629;51.444;-2.606;2024-03-29T07:04:35;8.70;99.90
39951;DHT22;25629;51.444;-2.606;2024-03-29T07:07:00;8.70;99.90
39951;DHT22;25629;51.444;-2.606;2024-03-29T07:09:26;8.60;99.90
39951;DHT22;25629;51.444;-2.606;2024-03-29T07:11:51;8.60;99.90
39951;DHT22;25629;51.444;-2.606;2024-03-29T07:14:18;8.60;99.90
39951;DHT22;25629;51.444;-2.606;2024-03-29T07:16:44;8.70;99.90
39951;DHT22;25629;51.444;-2.606;2024-03-29T07:19:09;8.80;99.90
39951;DHT22;25629;51.444;-2.606;2024-03-29T07:21:41;8.80;99.90
39951;DHT22;25629;51.444;-2.606;2024-03-29T07:24:06;8.90;99.90
39951;DHT22;25629;51.444;-2.606;2024-03-29T07:26:32;9.00;99.90
39951;DHT22;25629;51.444;-2.606;2024-03-29T07:28:57;9.00;99.90
39951;DHT22;25629;51.444;-2.606;2024-03-29T07:31:23;9.00;99.90
39951;DHT22;25629;51.444;-2.606;2024-03-29T07:33:48;9.10;99.90
39951;DHT22;25629;51.444;-2.606;2024-03-29T07:36:14;9.10;99.90
39951;DHT22;25629;51.444;-2.606;2024-03-29T07:38:41;9.10;99.90
39951;DHT22;25629;51.444;-2.606;2024-03-29T07:41:07;9.20;99.90
39951;DHT22;25629;51.444;-2.606;2024-03-29T07:43:41;9.30;99.90
39951;DHT22;25629;51.444;-2.606;2024-03-29T07:46:16;9.40;99.90
39951;DHT22;25629;51.444;-2.606;2024-03-29T07:48:41;9.50;99.90
39951;DHT22;25629;51.444;-2.606;2024-03-29T07:51:07;9.60;99.90
39951;DHT22;25629;51.444;-2.606;2024-03-29T07:53:32;9.70;99.90
39951;DHT22;25629;51.444;-2.606;2024-03-29T07:55:58;9.70;99.90
39951;DHT22;25629;51.444;-2.606;2024-03-29T07:58:23;9.80;99.90
39951;DHT22;25629;51.444;-2.606;2024-03-29T08:00:50;10.00;99.90
39951;DHT22;25629;51.444;-2.606;2024-03-29T08:03:16;10.10;96.20
39951;DHT22;25629;51.444;-2.606;2024-03-29T08:05:41;10.10;86.20
39951;DHT22;25629;51.444;-2.606;2024-03-29T08:08:07;10.20;97.20
39951;DHT22;25629;51.444;-2.606;2024-03-29T08:10:32;10.40;84.40
39951;DHT22;25629;51.444;-2.606;2024-03-29T08:12:58;10.40;37.20
39951;DHT22;25629;51.444;-2.606;2024-03-29T08:15:26;10.50;23.10
39951;DHT22;25629;51.444;-2.606;2024-03-29T08:17:52;10.50;1.00
39951;DHT22;25629;51.444;-2.606;2024-03-29T08:20:18;10.60;1.00
39951;DHT22;25629;51.444;-2.606;2024-03-29T08:22:44;10.80;1.00
39951;DHT22;25629;51.444;-2.606;2024-03-29T08:25:09;10.90;1.00
39951;DHT22;25629;51.444;-2.606;2024-03-29T08:27:35;11.00;1.00
39951;DHT22;25629;51.444;-2.606;2024-03-29T08:30:01;11.10;1.00
39951;DHT22;25629;51.444;-2.606;2024-03-29T08:32:26;11.20;1.00
39951;DHT22;25629;51.444;-2.606;2024-03-29T08:34:52;11.40;99.90
39951;DHT22;25629;51.444;-2.606;2024-03-29T08:37:18;11.50;99.90
39951;DHT22;25629;51.444;-2.606;2024-03-29T08:39:43;11.60;99.90
39951;DHT22;25629;51.444;-2.606;2024-03-29T08:42:09;11.60;99.90
39951;DHT22;25629;51.444;-2.606;2024-03-29T08:44:37;11.60;99.90
39951;DHT22;25629;51.444;-2.606;2024-03-29T08:47:02;11.60;1.00
39951;DHT22;25629;51.444;-2.606;2024-03-29T08:49:28;11.70;99.90
39951;DHT22;25629;51.444;-2.606;2024-03-29T08:51:54;11.90;99.90
39951;DHT22;25629;51.444;-2.606;2024-03-29T08:54:20;12.10;99.90
39951;DHT22;25629;51.444;-2.606;2024-03-29T08:56:45;12.20;99.90
39951;DHT22;25629;51.444;-2.606;2024-03-29T08:59:11;12.30;1.00
39951;DHT22;25629;51.444;-2.606;2024-03-29T09:01:43;12.50;1.00
39951;DHT22;25629;51.444;-2.606;2024-03-29T09:04:09;12.70;99.90
39951;DHT22;25629;51.444;-2.606;2024-03-29T09:06:38;12.80;99.90
39951;DHT22;25629;51.444;-2.606;2024-03-29T09:09:06;13.00;99.90
39951;DHT22;25629;51.444;-2.606;2024-03-29T09:11:32;13.40;99.90
39951;DHT22;25629;51.444;-2.606;2024-03-29T09:13:58;13.40;1.00
39951;DHT22;25629;51.444;-2.606;2024-03-29T09:16:27;13.50;99.90
39951;DHT22;25629;51.444;-2.606;2024-03-29T09:18:54;13.20;1.00
39951;DHT22;25629;51.444;-2.606;2024-03-29T09:21:19;13.10;92.60
39951;DHT22;25629;51.444;-2.606;2024-03-29T09:23:45;13.20;1.00
39951;DHT22;25629;51.444;-2.606;2024-03-29T09:26:11;13.50;99.90
39951;DHT22;25629;51.444;-2.606;2024-03-29T09:28:37;13.60;99.90
39951;DHT22;25629;51.444;-2.606;2024-03-29T09:31:03;13.70;99.90
